sensor_id;sensor_type;location;lat;lon;timestamp;temperature;humidity
13806;DHT22;6974;53.606;9.872;2022-10-16T00:00:40;15.10;99.90
13806;DHT22;6974;53.606;9.872;2022-10-16T00:03:07;15.10;99.90
13806;DHT22;6974;53.606;9.872;2022-10-16T00:05:39;15.10;99.90
13806;DHT22;6974;53.606;9.872;2022-10-16T00:08:07;15.10;99.90
13806;DHT22;6974;53.606;9.872;2022-10-16T00:10:34;15.10;99.90
13806;DHT22;6974;53.606;9.872;2022-10-16T00:13:01;15.00;99.90
13806;DHT22;6974;53.606;9.872;2022-10-16T00:15:28;15.00;99.90
13806;DHT22;6974;53.606;9.872;2022-10-16T00:17:56;15.00;99.90
13806;DHT22;6974;53.606;9.872;2022-10-16T00:20:23;15.00;99.90
13806;DHT22;6974;53.606;9.872;2022-10-16T00:22:50;15.10;99.90
13806;DHT22;6974;53.606;9.872;2022-10-16T00:25:17;15.10;99.90
13806;DHT22;6974;53.606;9.872;2022-10-16T00:27:44;15.10;99.90
13806;DHT22;6974;53.606;9.872;2022-10-16T00:30:11;15.20;99.90
13806;DHT22;6974;53.606;9.872;2022-10-16T00:32:37;15.10;99.90
13806;DHT22;6974;53.606;9.872;2022-10-16T00:35:06;15.10;99.90
13806;DHT22;6974;53.606;9.872;2022-10-16T00:37:33;15.10;99.90
13806;DHT22;6974;53.606;9.872;2022-10-16T00:40:00;15.00;99.90
13806;DHT22;6974;53.606;9.872;2022-10-16T00:42:27;15.00;99.90
13806;DHT22;6974;53.606;9.872;2022-10-16T00:44:55;15.00;99.90
13806;DHT22;6974;53.606;9.872;2022-10-16T00:47:26;15.00;99.90
13806;DHT22;6974;53.606;9.872;2022-10-16T00:49:59;15.00;99.90
13806;DHT22;6974;53.606;9.872;2022-10-16T00:52:28;15.10;99.90
13806;DHT22;6974;53.606;9.872;2022-10-16T00:54:55;15.10;99.90
13806;DHT22;6974;53.606;9.872;2022-10-16T00:57:23;15.00;99.90
13806;DHT22;6974;53.606;9.872;2022-10-16T00:59:50;15.00;99.90
13806;DHT22;6974;53.606;9.872;2022-10-16T01:02:17;15.00;99.90
13806;DHT22;6974;53.606;9.872;2022-10-16T01:04:47;15.00;99.90
13806;DHT22;6974;53.606;9.872;2022-10-16T01:07:20;15.00;99.90
13806;DHT22;6974;53.606;9.872;2022-10-16T01:10:04;14.90;99.90
13806;DHT22;6974;53.606;9.872;2022-10-16T01:12:38;15.00;99.90
13806;DHT22;6974;53.606;9.872;2022-10-16T01:15:11;15.00;99.90
13806;DHT22;6974;53.606;9.872;2022-10-16T01:17:45;15.00;99.90
13806;DHT22;6974;53.606;9.872;2022-10-16T01:20:20;14.90;99.90
13806;DHT22;6974;53.606;9.872;2022-10-16T01:23:09;14.90;99.90
13806;DHT22;6974;53.606;9.872;2022-10-16T01:25:56;14.90;99.90
13806;DHT22;6974;53.606;9.872;2022-10-16T01:28:30;14.90;99.90
13806;DHT22;6974;53.606;9.872;2022-10-16T01:30:59;14.90;99.90
13806;DHT22;6974;53.606;9.872;2022-10-16T01:33:30;14.90;99.90
13806;DHT22;6974;53.606;9.872;2022-10-16T01:36:09;14.80;99.90
13806;DHT22;6974;53.606;9.872;2022-10-16T01:38:38;14.80;99.90
13806;DHT22;6974;53.606;9.872;2022-10-16T01:41:08;14.80;99.90
13806;DHT22;6974;53.606;9.872;2022-10-16T01:43:40;14.80;99.90
13806;DHT22;6974;53.606;9.872;2022-10-16T01:46:08;14.80;99.90
13806;DHT22;6974;53.606;9.872;2022-10-16T01:48:37;14.70;99.90
13806;DHT22;6974;53.606;9.872;2022-10-16T01:51:07;14.70;99.90
13806;DHT22;6974;53.606;9.872;2022-10-16T01:53:34;14.70;99.90
13806;DHT22;6974;53.606;9.872;2022-10-16T01:56:05;14.70;99.90
13806;DHT22;6974;53.606;9.872;2022-10-16T01:58:35;14.70;99.90
13806;DHT22;6974;53.606;9.872;2022-10-16T02:01:05;14.70;99.90
13806;DHT22;6974;53.606;9.872;2022-10-16T02:03:34;14.70;99.90
13806;DHT22;6974;53.606;9.872;2022-10-16T02:06:03;14.60;99.90
13806;DHT22;6974;53.606;9.872;2022-10-16T02:08:30;14.60;99.90
13806;DHT22;6974;53.606;9.872;2022-10-16T02:10:59;14.60;99.90
13806;DHT22;6974;53.606;9.872;2022-10-16T02:13:30;14.60;99.90
13806;DHT22;6974;53.606;9.872;2022-10-16T02:15:58;14.60;99.90
13806;DHT22;6974;53.606;9.872;2022-10-16T02:18:26;14.60;99.90
13806;DHT22;6974;53.606;9.872;2022-10-16T02:20:58;14.50;99.90
13806;DHT22;6974;53.606;9.872;2022-10-16T02:23:32;14.50;99.90
13806;DHT22;6974;53.606;9.872;2022-10-16T02:26:03;14.60;99.90
13806;DHT22;6974;53.606;9.872;2022-10-16T02:28:37;14.50;99.90
13806;DHT22;6974;53.606;9.872;2022-10-16T02:31:08;14.50;99.90
13806;DHT22;6974;53.606;9.872;2022-10-16T02:33:39;14.50;99.90
13806;DHT22;6974;53.606;9.872;2022-10-16T02:36:07;14.40;99.90
13806;DHT22;6974;53.606;9.872;2022-10-16T02:38:34;14.40;99.90
13806;DHT22;6974;53.606;9.872;2022-10-16T02:41:02;14.40;99.90
13806;DHT22;6974;53.606;9.872;2022-10-16T02:43:29;14.40;99.90
13806;DHT22;6974;53.606;9.872;2022-10-16T02:45:56;14.40;99.90
13806;DHT22;6974;53.606;9.872;2022-10-16T02:48:23;14.40;99.90
13806;DHT22;6974;53.606;9.872;2022-10-16T02:50:51;14.30;99.90
13806;DHT22;6974;53.606;9.872;2022-10-16T02:53:18;14.30;99.90
13806;DHT22;6974;53.606;9.872;2022-10-16T02:55:45;14.30;99.90
13806;DHT22;6974;53.606;9.872;2022-10-16T02:58:11;14.30;99.90
13806;DHT22;6974;53.606;9.872;2022-10-16T03:00:38;14.20;99.90
13806;DHT22;6974;53.606;9.872;2022-10-16T03:03:05;14.20;99.90
13806;DHT22;6974;53.606;9.872;2022-10-16T03:05:32;14.20;99.90
13806;DHT22;6974;53.606;9.872;2022-10-16T03:08:00;14.20;99.90
13806;DHT22;6974;53.606;9.872;2022-10-16T03:10:27;14.20;99.90
13806;DHT22;6974;53.606;9.872;2022-10-16T03:12:54;14.10;99.90
13806;DHT22;6974;53.606;9.872;2022-10-16T03:15:21;14.10;99.90
13806;DHT22;6974;53.606;9.872;2022-10-16T03:17:48;14.10;99.90
13806;DHT22;6974;53.606;9.872;2022-10-16T03:20:14;14.00;99.90
13806;DHT22;6974;53.606;9.872;2022-10-16T03:22:41;14.00;99.90
13806;DHT22;6974;53.606;9.872;2022-10-16T03:25:09;14.00;99.90
13806;DHT22;6974;53.606;9.872;2022-10-16T03:27:36;14.00;99.90
13806;DHT22;6974;53.606;9.872;2022-10-16T03:30:03;14.00;99.90
13806;DHT22;6974;53.606;9.872;2022-10-16T03:32:30;14.00;99.90
13806;DHT22;6974;53.606;9.872;2022-10-16T03:34:57;14.00;99.90
13806;DHT22;6974;53.606;9.872;2022-10-16T03:37:24;14.00;99.90
13806;DHT22;6974;53.606;9.872;2022-10-16T03:39:51;14.00;99.90
13806;DHT22;6974;53.606;9.872;2022-10-16T03:42:19;14.00;99.90
13806;DHT22;6974;53.606;9.872;2022-10-16T03:44:46;14.00;99.90
13806;DHT22;6974;53.606;9.872;2022-10-16T03:47:13;14.00;99.90
13806;DHT22;6974;53.606;9.872;2022-10-16T03:49:39;14.00;99.90
13806;DHT22;6974;53.606;9.872;2022-10-16T03:52:06;14.00;99.90
13806;DHT22;6974;53.606;9.872;2022-10-16T03:54:33;14.00;99.90
13806;DHT22;6974;53.606;9.872;2022-10-16T03:57:00;14.00;99.90
13806;DHT22;6974;53.606;9.872;2022-10-16T03:59:28;14.00;99.90
13806;DHT22;6974;53.606;9.872;2022-10-16T04:01:54;14.00;99.90
13806;DHT22;6974;53.606;9.872;2022-10-16T04:04:21;14.00;99.90
13806;DHT22;6974;53.606;9.872;2022-10-16T04:06:48;14.00;99.90
13806;DHT22;6974;53.606;9.872;2022-10-16T04:09:15;14.00;99.90
13806;DHT22;6974;53.606;9.872;2022-10-16T04:11:41;14.00;99.90
13806;DHT22;6974;53.606;9.872;2022-10-16T04:14:08;13.90;99.90
13806;DHT22;6974;53.606;9.872;2022-10-16T04:16:37;13.90;99.90
13806;DHT22;6974;53.606;9.872;2022-10-16T04:19:03;13.90;99.90
13806;DHT22;6974;53.606;9.872;2022-10-16T04:21:30;13.90;99.90
13806;DHT22;6974;53.606;9.872;2022-10-16T04:23:57;13.90;99.90
13806;DHT22;6974;53.606;9.872;2022-10-16T04:26:24;13.90;99.90
13806;DHT22;6974;53.606;9.872;2022-10-16T04:28:50;14.00;99.90
13806;DHT22;6974;53.606;9.872;2022-10-16T04:31:17;14.00;99.90
13806;DHT22;6974;53.606;9.872;2022-10-16T04:33:45;14.10;99.90
13806;DHT22;6974;53.606;9.872;2022-10-16T04:36:12;14.00;99.90
13806;DHT22;6974;53.606;9.872;2022-10-16T04:38:39;14.00;99.90
13806;DHT22;6974;53.606;9.872;2022-10-16T04:41:07;13.90;99.90
13806;DHT22;6974;53.606;9.872;2022-10-16T04:43:34;13.90;99.90
13806;DHT22;6974;53.606;9.872;2022-10-16T04:46:01;13.90;99.90
13806;DHT22;6974;53.606;9.872;2022-10-16T04:48:30;13.90;99.90
13806;DHT22;6974;53.606;9.872;2022-10-16T04:50:58;13.80;99.90
13806;DHT22;6974;53.606;9.872;2022-10-16T04:53:25;13.80;99.90
13806;DHT22;6974;53.606;9.872;2022-10-16T04:55:52;13.80;99.90
13806;DHT22;6974;53.606;9.872;2022-10-16T04:58:19;13.80;99.90
13806;DHT22;6974;53.606;9.872;2022-10-16T05:00:45;13.80;99.90
13806;DHT22;6974;53.606;9.872;2022-10-16T05:03:12;13.80;99.90
13806;DHT22;6974;53.606;9.872;2022-10-16T05:05:42;13.80;99.90
13806;DHT22;6974;53.606;9.872;2022-10-16T05:08:11;13.80;99.90
13806;DHT22;6974;53.606;9.872;2022-10-16T05:10:38;13.80;99.90
13806;DHT22;6974;53.606;9.872;2022-10-16T05:13:05;13.80;99.90
13806;DHT22;6974;53.606;9.872;2022-10-16T05:15:31;13.80;99.90
13806;DHT22;6974;53.606;9.872;2022-10-16T05:17:58;13.80;99.90
13806;DHT22;6974;53.606;9.872;2022-10-16T05:20:25;13.80;99.90
13806;DHT22;6974;53.606;9.872;2022-10-16T05:22:52;13.80;99.90
13806;DHT22;6974;53.606;9.872;2022-10-16T05:25:20;13.80;99.90
13806;DHT22;6974;53.606;9.872;2022-10-16T05:27:47;13.80;99.90
13806;DHT22;6974;53.606;9.872;2022-10-16T05:30:15;13.80;99.90
13806;DHT22;6974;53.606;9.872;2022-10-16T05:32:46;13.80;99.90
13806;DHT22;6974;53.606;9.872;2022-10-16T05:35:13;13.70;99.90
13806;DHT22;6974;53.606;9.872;2022-10-16T05:37:40;13.70;99.90
13806;DHT22;6974;53.606;9.872;2022-10-16T05:40:08;13.70;99.90
13806;DHT22;6974;53.606;9.872;2022-10-16T05:42:36;13.70;99.90
13806;DHT22;6974;53.606;9.872;2022-10-16T05:45:04;13.70;99.90
13806;DHT22;6974;53.606;9.872;2022-10-16T05:47:31;13.70;99.90
13806;DHT22;6974;53.606;9.872;2022-10-16T05:49:57;13.70;99.90
13806;DHT22;6974;53.606;9.872;2022-10-16T05:52:24;13.70;99.90
13806;DHT22;6974;53.606;9.872;2022-10-16T05:54:51;13.70;99.90
13806;DHT22;6974;53.606;9.872;2022-10-16T05:57:17;13.70;99.90
13806;DHT22;6974;53.606;9.872;2022-10-16T05:59:46;13.70;99.90
13806;DHT22;6974;53.606;9.872;2022-10-16T06:02:13;13.70;99.90
13806;DHT22;6974;53.606;9.872;2022-10-16T06:04:40;13.70;99.90
13806;DHT22;6974;53.606;9.872;2022-10-16T06:07:06;13.70;99.90
13806;DHT22;6974;53.606;9.872;2022-10-16T06:09:33;13.80;99.90
13806;DHT22;6974;53.606;9.872;2022-10-16T06:12:00;13.80;99.90
13806;DHT22;6974;53.606;9.872;2022-10-16T06:14:27;13.80;99.90
13806;DHT22;6974;53.606;9.872;2022-10-16T06:16:55;13.70;99.90
13806;DHT22;6974;53.606;9.872;2022-10-16T06:19:22;13.80;99.90
13806;DHT22;6974;53.606;9.872;2022-10-16T06:21:49;13.70;99.90
13806;DHT22;6974;53.606;9.872;2022-10-16T06:24:16;13.70;99.90
13806;DHT22;6974;53.606;9.872;2022-10-16T06:26:42;13.80;99.90
13806;DHT22;6974;53.606;9.872;2022-10-16T06:29:09;13.80;99.90
13806;DHT22;6974;53.606;9.872;2022-10-16T06:31:36;13.80;99.90
13806;DHT22;6974;53.606;9.872;2022-10-16T06:34:04;13.90;99.90
13806;DHT22;6974;53.606;9.872;2022-10-16T06:36:34;13.80;99.90
13806;DHT22;6974;53.606;9.872;2022-10-16T06:39:01;13.80;99.90
13806;DHT22;6974;53.606;9.872;2022-10-16T06:41:28;13.80;99.90
13806;DHT22;6974;53.606;9.872;2022-10-16T06:43:55;13.80;99.90
13806;DHT22;6974;53.606;9.872;2022-10-16T06:46:24;13.80;99.90
13806;DHT22;6974;53.606;9.872;2022-10-16T06:48:51;13.90;99.90
13806;DHT22;6974;53.606;9.872;2022-10-16T06:51:21;13.90;99.90
13806;DHT22;6974;53.606;9.872;2022-10-16T06:53:50;13.90;99.90
13806;DHT22;6974;53.606;9.872;2022-10-16T06:56:18;14.00;99.90
13806;DHT22;6974;53.606;9.872;2022-10-16T06:58:46;14.00;99.90
13806;DHT22;6974;53.606;9.872;2022-10-16T07:01:14;14.00;99.90
13806;DHT22;6974;53.606;9.872;2022-10-16T07:03:42;14.00;99.90
13806;DHT22;6974;53.606;9.872;2022-10-16T07:06:10;14.20;99.90
13806;DHT22;6974;53.606;9.872;2022-10-16T07:08:40;14.20;99.90
13806;DHT22;6974;53.606;9.872;2022-10-16T07:11:09;14.30;99.90
13806;DHT22;6974;53.606;9.872;2022-10-16T07:13:36;14.40;99.90
13806;DHT22;6974;53.606;9.872;2022-10-16T07:16:08;14.40;99.90
13806;DHT22;6974;53.606;9.872;2022-10-16T07:18:35;14.40;99.90
13806;DHT22;6974;53.606;9.872;2022-10-16T07:21:05;14.40;99.90
13806;DHT22;6974;53.606;9.872;2022-10-16T07:23:33;14.50;99.90
13806;DHT22;6974;53.606;9.872;2022-10-16T07:26:02;14.50;99.90
13806;DHT22;6974;53.606;9.872;2022-10-16T07:28:30;14.50;99.90
13806;DHT22;6974;53.606;9.872;2022-10-16T07:31:00;14.50;99.90
13806;DHT22;6974;53.606;9.872;2022-10-16T07:33:28;14.50;99.90
13806;DHT22;6974;53.606;9.872;2022-10-16T07:35:55;14.50;99.90
13806;DHT22;6974;53.606;9.872;2022-10-16T07:38:22;14.50;99.90
13806;DHT22;6974;53.606;9.872;2022-10-16T07:40:56;14.70;99.90
13806;DHT22;6974;53.606;9.872;2022-10-16T07:43:25;14.70;99.90
13806;DHT22;6974;53.606;9.872;2022-10-16T07:45:53;14.80;99.90
13806;DHT22;6974;53.606;9.872;2022-10-16T07:48:20;14.80;99.90
13806;DHT22;6974;53.606;9.872;2022-10-16T07:50:48;14.80;99.90
13806;DHT22;6974;53.606;9.872;2022-10-16T07:53:15;14.90;99.90
13806;DHT22;6974;53.606;9.872;2022-10-16T07:55:42;14.90;99.90
13806;DHT22;6974;53.606;9.872;2022-10-16T07:58:09;14.80;99.90
13806;DHT22;6974;53.606;9.872;2022-10-16T08:00:37;14.90;99.90
13806;DHT22;6974;53.606;9.872;2022-10-16T08:03:04;14.90;99.90
13806;DHT22;6974;53.606;9.872;2022-10-16T08:05:32;14.80;99.90
13806;DHT22;6974;53.606;9.872;2022-10-16T08:08:00;14.80;99.90
13806;DHT22;6974;53.606;9.872;2022-10-16T08:10:27;14.80;99.90
13806;DHT22;6974;53.606;9.872;2022-10-16T08:12:54;14.80;99.90
13806;DHT22;6974;53.606;9.872;2022-10-16T08:15:21;14.80;99.90
13806;DHT22;6974;53.606;9.872;2022-10-16T08:17:56;14.90;99.90
13806;DHT22;6974;53.606;9.872;2022-10-16T08:20:23;14.80;99.90
13806;DHT22;6974;53.606;9.872;2022-10-16T08:22:50;14.90;99.90
13806;DHT22;6974;53.606;9.872;2022-10-16T08:25:16;15.00;99.90
13806;DHT22;6974;53.606;9.872;2022-10-16T08:27:43;15.00;99.90
13806;DHT22;6974;53.606;9.872;2022-10-16T08:30:10;15.00;99.90
13806;DHT22;6974;53.606;9.872;2022-10-16T08:32:37;15.00;99.90
13806;DHT22;6974;53.606;9.872;2022-10-16T08:35:06;15.00;99.90
13806;DHT22;6974;53.606;9.872;2022-10-16T08:37:33;15.10;99.90
13806;DHT22;6974;53.606;9.872;2022-10-16T08:40:00;15.10;99.90
13806;DHT22;6974;53.606;9.872;2022-10-16T08:42:40;15.20;99.90
13806;DHT22;6974;53.606;9.872;2022-10-16T08:45:19;15.30;99.90
13806;DHT22;6974;53.606;9.872;2022-10-16T08:47:52;15.30;99.90
13806;DHT22;6974;53.606;9.872;2022-10-16T08:50:27;15.30;99.90
13806;DHT22;6974;53.606;9.872;2022-10-16T08:52:55;15.40;99.90
13806;DHT22;6974;53.606;9.872;2022-10-16T08:55:31;15.40;99.90
13806;DHT22;6974;53.606;9.872;2022-10-16T08:57:59;15.40;99.90
13806;DHT22;6974;53.606;9.872;2022-10-16T09:00:27;15.40;99.90
13806;DHT22;6974;53.606;9.872;2022-10-16T09:03:03;15.50;99.90
13806;DHT22;6974;53.606;9.872;2022-10-16T09:08:59;15.70;99.90
13806;DHT22;6974;53.606;9.872;2022-10-16T09:11:38;15.80;99.90
13806;DHT22;6974;53.606;9.872;2022-10-16T09:14:23;15.70;99.90
13806;DHT22;6974;53.606;9.872;2022-10-16T09:17:11;15.80;99.90
13806;DHT22;6974;53.606;9.872;2022-10-16T09:19:46;15.80;99.90
13806;DHT22;6974;53.606;9.872;2022-10-16T09:22:16;15.80;99.90
13806;DHT22;6974;53.606;9.872;2022-10-16T09:24:44;15.80;99.90
13806;DHT22;6974;53.606;9.872;2022-10-16T09:27:12;15.80;99.90
13806;DHT22;6974;53.606;9.872;2022-10-16T09:29:40;15.90;99.90
13806;DHT22;6974;53.606;9.872;2022-10-16T09:32:11;16.00;99.90
13806;DHT22;6974;53.606;9.872;2022-10-16T09:34:42;16.10;99.90
13806;DHT22;6974;53.606;9.872;2022-10-16T09:37:13;16.10;99.90
13806;DHT22;6974;53.606;9.872;2022-10-16T09:39:46;16.20;99.90
13806;DHT22;6974;53.606;9.872;2022-10-16T09:42:16;16.30;99.90
13806;DHT22;6974;53.606;9.872;2022-10-16T09:44:47;16.60;99.90
13806;DHT22;6974;53.606;9.872;2022-10-16T09:47:17;16.80;99.90
13806;DHT22;6974;53.606;9.872;2022-10-16T09:49:52;16.90;99.90
13806;DHT22;6974;53.606;9.872;2022-10-16T09:52:20;17.10;99.90
13806;DHT22;6974;53.606;9.872;2022-10-16T09:54:52;17.20;99.90
13806;DHT22;6974;53.606;9.872;2022-10-16T09:57:21;17.30;99.90
13806;DHT22;6974;53.606;9.872;2022-10-16T09:59:49;17.40;99.90
13806;DHT22;6974;53.606;9.872;2022-10-16T10:02:19;17.40;99.90
13806;DHT22;6974;53.606;9.872;2022-10-16T10:04:50;17.30;99.90
13806;DHT22;6974;53.606;9.872;2022-10-16T10:07:23;17.40;99.90
13806;DHT22;6974;53.606;9.872;2022-10-16T10:09:53;17.40;99.90
13806;DHT22;6974;53.606;9.872;2022-10-16T10:12:23;17.40;99.90
13806;DHT22;6974;53.606;9.872;2022-10-16T10:14:51;17.40;99.90
13806;DHT22;6974;53.606;9.872;2022-10-16T10:17:20;17.40;99.90
13806;DHT22;6974;53.606;9.872;2022-10-16T10:19:50;17.30;99.90
13806;DHT22;6974;53.606;9.872;2022-10-16T10:22:21;17.30;99.90
13806;DHT22;6974;53.606;9.872;2022-10-16T10:25:00;17.30;99.90
13806;DHT22;6974;53.606;9.872;2022-10-16T10:27:34;17.20;99.90
13806;DHT22;6974;53.606;9.872;2022-10-16T10:30:10;17.10;99.90
13806;DHT22;6974;53.606;9.872;2022-10-16T10:32:48;17.00;99.90
13806;DHT22;6974;53.606;9.872;2022-10-16T10:35:24;17.00;99.90
13806;DHT22;6974;53.606;9.872;2022-10-16T10:38:03;17.10;99.90
13806;DHT22;6974;53.606;9.872;2022-10-16T10:40:40;17.20;99.90
13806;DHT22;6974;53.606;9.872;2022-10-16T10:43:17;17.20;99.90
13806;DHT22;6974;53.606;9.872;2022-10-16T10:45:48;17.30;99.90
13806;DHT22;6974;53.606;9.872;2022-10-16T10:51:23;17.30;99.90
13806;DHT22;6974;53.606;9.872;2022-10-16T10:53:58;17.20;99.90
13806;DHT22;6974;53.606;9.872;2022-10-16T10:56:42;17.20;99.90
13806;DHT22;6974;53.606;9.872;2022-10-16T10:59:27;17.20;99.90
13806;DHT22;6974;53.606;9.872;2022-10-16T11:01:58;17.30;99.90
13806;DHT22;6974;53.606;9.872;2022-10-16T11:04:34;17.20;99.90
13806;DHT22;6974;53.606;9.872;2022-10-16T11:07:06;17.20;99.90
13806;DHT22;6974;53.606;9.872;2022-10-16T11:09:38;17.30;99.90
13806;DHT22;6974;53.606;9.872;2022-10-16T11:12:14;17.30;99.90
13806;DHT22;6974;53.606;9.872;2022-10-16T11:14:47;17.20;99.90
13806;DHT22;6974;53.606;9.872;2022-10-16T11:17:19;17.20;99.90
13806;DHT22;6974;53.606;9.872;2022-10-16T11:19:49;17.20;99.90
13806;DHT22;6974;53.606;9.872;2022-10-16T11:22:22;17.20;99.90
13806;DHT22;6974;53.606;9.872;2022-10-16T11:24:54;17.20;99.90
13806;DHT22;6974;53.606;9.872;2022-10-16T11:27:35;17.30;99.90
13806;DHT22;6974;53.606;9.872;2022-10-16T11:30:05;17.20;99.90
13806;DHT22;6974;53.606;9.872;2022-10-16T11:32:38;17.30;99.90
13806;DHT22;6974;53.606;9.872;2022-10-16T11:35:14;17.30;99.90
13806;DHT22;6974;53.606;9.872;2022-10-16T11:37:46;17.40;99.90
13806;DHT22;6974;53.606;9.872;2022-10-16T11:40:22;17.50;99.90
13806;DHT22;6974;53.606;9.872;2022-10-16T11:42:56;17.60;99.90
13806;DHT22;6974;53.606;9.872;2022-10-16T11:45:30;17.60;99.90
13806;DHT22;6974;53.606;9.872;2022-10-16T11:48:04;17.70;99.90
13806;DHT22;6974;53.606;9.872;2022-10-16T11:50:39;17.60;99.90
13806;DHT22;6974;53.606;9.872;2022-10-16T11:53:13;17.60;99.90
13806;DHT22;6974;53.606;9.872;2022-10-16T11:55:44;17.60;99.90
13806;DHT22;6974;53.606;9.872;2022-10-16T11:58:21;17.70;99.90
13806;DHT22;6974;53.606;9.872;2022-10-16T12:00:56;17.60;99.90
13806;DHT22;6974;53.606;9.872;2022-10-16T12:03:28;17.60;99.90
13806;DHT22;6974;53.606;9.872;2022-10-16T12:06:02;17.50;99.90
13806;DHT22;6974;53.606;9.872;2022-10-16T12:08:33;17.50;99.90
13806;DHT22;6974;53.606;9.872;2022-10-16T12:11:09;17.50;99.90
13806;DHT22;6974;53.606;9.872;2022-10-16T12:13:39;17.40;99.90
13806;DHT22;6974;53.606;9.872;2022-10-16T12:16:22;17.40;99.90
13806;DHT22;6974;53.606;9.872;2022-10-16T12:18:49;17.50;99.90
13806;DHT22;6974;53.606;9.872;2022-10-16T12:21:31;17.50;99.90
13806;DHT22;6974;53.606;9.872;2022-10-16T12:23:58;17.50;99.90
13806;DHT22;6974;53.606;9.872;2022-10-16T12:26:28;17.50;99.90
13806;DHT22;6974;53.606;9.872;2022-10-16T12:29:12;17.50;99.90
13806;DHT22;6974;53.606;9.872;2022-10-16T12:31:45;17.50;99.90
13806;DHT22;6974;53.606;9.872;2022-10-16T12:34:23;17.50;99.90
13806;DHT22;6974;53.606;9.872;2022-10-16T12:36:54;17.60;99.90
13806;DHT22;6974;53.606;9.872;2022-10-16T12:39:22;17.50;99.90
13806;DHT22;6974;53.606;9.872;2022-10-16T12:42:02;17.50;99.90
13806;DHT22;6974;53.606;9.872;2022-10-16T12:44:33;17.50;99.90
13806;DHT22;6974;53.606;9.872;2022-10-16T12:47:01;17.40;99.90
13806;DHT22;6974;53.606;9.872;2022-10-16T12:49:35;17.30;99.90
13806;DHT22;6974;53.606;9.872;2022-10-16T12:52:03;17.30;99.90
13806;DHT22;6974;53.606;9.872;2022-10-16T12:54:31;17.30;99.90
13806;DHT22;6974;53.606;9.872;2022-10-16T12:57:25;17.20;99.90
13806;DHT22;6974;53.606;9.872;2022-10-16T13:00:03;17.20;99.90
13806;DHT22;6974;53.606;9.872;2022-10-16T13:05:39;17.30;99.90
13806;DHT22;6974;53.606;9.872;2022-10-16T13:08:29;17.40;99.90
13806;DHT22;6974;53.606;9.872;2022-10-16T13:11:07;17.40;99.90
13806;DHT22;6974;53.606;9.872;2022-10-16T13:13:59;17.30;99.90
13806;DHT22;6974;53.606;9.872;2022-10-16T13:16:38;17.30;99.90
13806;DHT22;6974;53.606;9.872;2022-10-16T13:19:16;17.30;99.90
13806;DHT22;6974;53.606;9.872;2022-10-16T13:21:51;17.40;99.90
13806;DHT22;6974;53.606;9.872;2022-10-16T13:24:35;17.40;99.90
13806;DHT22;6974;53.606;9.872;2022-10-16T13:27:09;17.30;99.90
13806;DHT22;6974;53.606;9.872;2022-10-16T13:29:40;17.40;99.90
13806;DHT22;6974;53.606;9.872;2022-10-16T13:32:10;17.40;99.90
13806;DHT22;6974;53.606;9.872;2022-10-16T13:34:44;17.50;99.90
13806;DHT22;6974;53.606;9.872;2022-10-16T13:37:17;17.60;99.90
13806;DHT22;6974;53.606;9.872;2022-10-16T13:39:44;17.60;99.90
13806;DHT22;6974;53.606;9.872;2022-10-16T13:42:14;17.60;99.90
13806;DHT22;6974;53.606;9.872;2022-10-16T13:44:44;17.60;99.90
13806;DHT22;6974;53.606;9.872;2022-10-16T13:47:17;17.50;99.90
13806;DHT22;6974;53.606;9.872;2022-10-16T13:49:44;17.50;99.90
13806;DHT22;6974;53.606;9.872;2022-10-16T13:52:18;17.40;99.90
13806;DHT22;6974;53.606;9.872;2022-10-16T13:54:46;17.40;99.90
13806;DHT22;6974;53.606;9.872;2022-10-16T13:57:13;17.40;99.90
13806;DHT22;6974;53.606;9.872;2022-10-16T13:59:40;17.30;99.90
13806;DHT22;6974;53.606;9.872;2022-10-16T14:02:17;17.30;99.90
13806;DHT22;6974;53.606;9.872;2022-10-16T14:04:46;17.30;99.90
13806;DHT22;6974;53.606;9.872;2022-10-16T14:07:17;17.30;99.90
13806;DHT22;6974;53.606;9.872;2022-10-16T14:09:48;17.30;99.90
13806;DHT22;6974;53.606;9.872;2022-10-16T14:12:16;17.30;99.90
13806;DHT22;6974;53.606;9.872;2022-10-16T14:14:45;17.30;99.90
13806;DHT22;6974;53.606;9.872;2022-10-16T14:17:18;17.30;99.90
13806;DHT22;6974;53.606;9.872;2022-10-16T14:19:46;17.30;99.90
13806;DHT22;6974;53.606;9.872;2022-10-16T14:22:27;17.30;99.90
13806;DHT22;6974;53.606;9.872;2022-10-16T14:24:55;17.30;99.90
13806;DHT22;6974;53.606;9.872;2022-10-16T14:27:28;17.30;99.90
13806;DHT22;6974;53.606;9.872;2022-10-16T14:30:12;17.30;99.90
13806;DHT22;6974;53.606;9.872;2022-10-16T14:32:42;17.30;99.90
13806;DHT22;6974;53.606;9.872;2022-10-16T14:35:24;17.20;99.90
13806;DHT22;6974;53.606;9.872;2022-10-16T14:37:52;17.20;99.90
13806;DHT22;6974;53.606;9.872;2022-10-16T14:40:21;17.20;99.90
13806;DHT22;6974;53.606;9.872;2022-10-16T14:42:49;17.20;99.90
13806;DHT22;6974;53.606;9.872;2022-10-16T14:45:19;17.30;99.90
13806;DHT22;6974;53.606;9.872;2022-10-16T14:47:50;17.20;99.90
13806;DHT22;6974;53.606;9.872;2022-10-16T14:50:18;17.20;99.90
13806;DHT22;6974;53.606;9.872;2022-10-16T14:52:45;17.10;99.90
13806;DHT22;6974;53.606;9.872;2022-10-16T14:55:12;17.10;99.90
13806;DHT22;6974;53.606;9.872;2022-10-16T14:57:39;17.10;99.90
13806;DHT22;6974;53.606;9.872;2022-10-16T15:00:15;17.10;99.90
13806;DHT22;6974;53.606;9.872;2022-10-16T15:02:42;17.00;99.90
13806;DHT22;6974;53.606;9.872;2022-10-16T15:05:17;17.00;99.90
13806;DHT22;6974;53.606;9.872;2022-10-16T15:07:44;16.90;99.90
13806;DHT22;6974;53.606;9.872;2022-10-16T15:10:12;16.90;99.90
13806;DHT22;6974;53.606;9.872;2022-10-16T15:12:39;16.90;99.90
13806;DHT22;6974;53.606;9.872;2022-10-16T15:15:25;16.90;99.90
13806;DHT22;6974;53.606;9.872;2022-10-16T15:17:54;16.90;99.90
13806;DHT22;6974;53.606;9.872;2022-10-16T15:20:23;16.80;99.90
13806;DHT22;6974;53.606;9.872;2022-10-16T15:22:50;16.90;99.90
13806;DHT22;6974;53.606;9.872;2022-10-16T15:25:29;16.90;99.90
13806;DHT22;6974;53.606;9.872;2022-10-16T15:27:57;16.90;99.90
13806;DHT22;6974;53.606;9.872;2022-10-16T15:30:24;16.90;99.90
13806;DHT22;6974;53.606;9.872;2022-10-16T15:32:51;16.80;99.90
13806;DHT22;6974;53.606;9.872;2022-10-16T15:35:18;16.80;99.90
13806;DHT22;6974;53.606;9.872;2022-10-16T15:37:48;16.70;99.90
13806;DHT22;6974;53.606;9.872;2022-10-16T15:40:15;16.70;99.90
13806;DHT22;6974;53.606;9.872;2022-10-16T15:42:42;16.60;99.90
13806;DHT22;6974;53.606;9.872;2022-10-16T15:45:10;16.60;99.90
13806;DHT22;6974;53.606;9.872;2022-10-16T15:47:37;16.60;99.90
13806;DHT22;6974;53.606;9.872;2022-10-16T15:50:04;16.60;99.90
13806;DHT22;6974;53.606;9.872;2022-10-16T15:52:31;16.50;99.90
13806;DHT22;6974;53.606;9.872;2022-10-16T15:54:59;16.50;99.90
13806;DHT22;6974;53.606;9.872;2022-10-16T15:57:28;16.50;99.90
13806;DHT22;6974;53.606;9.872;2022-10-16T15:59:55;16.40;99.90
13806;DHT22;6974;53.606;9.872;2022-10-16T16:02:22;16.40;99.90
13806;DHT22;6974;53.606;9.872;2022-10-16T16:04:48;16.30;99.90
13806;DHT22;6974;53.606;9.872;2022-10-16T16:07:15;16.30;99.90
13806;DHT22;6974;53.606;9.872;2022-10-16T16:09:42;16.20;99.90
13806;DHT22;6974;53.606;9.872;2022-10-16T16:12:11;16.10;99.90